AIRPORT_AIRPORT_METAR
METAR FOR LWSK
ADDS - METARS form results

(1506 UTC 18 August 2019)
Data provider http://aviationweather.gov/metar/data/
 
METAR text: LWSK 181500Z VRB02KT CAVOK 32/06 Q1015 NOSIG
Conditions at: LWSK (SKOPJE/PETROVAC , MK) observed 1500 UTC 18 August 2019
Temperature: 32.0°C (90°F)
Dewpoint: 6.0°C (43°F) [RH = 20%]
Pressure (altimeter): 29.97 inches Hg (1015.0 mb)
Winds: variable direction winds at 2 MPH (2 knots; 1.0 m/s)
Visibility: 6 or more miles (10+ km)
Ceiling: ceiling and visibility are OK
Clouds: unknown
Weather: no significant weather observed at this time

METAR text: LWSK 181430Z 22004KT CAVOK 32/07 Q1015 NOSIG
Conditions at: LWSK (SKOPJE/PETROVAC , MK) observed 1430 UTC 18 August 2019
Temperature: 32.0°C (90°F)
Dewpoint: 7.0°C (45°F) [RH = 21%]
Pressure (altimeter): 29.97 inches Hg (1015.0 mb)
Winds: from the SW (220 degrees) at 5 MPH (4 knots; 2.1 m/s)
Visibility: 6 or more miles (10+ km)
Ceiling: ceiling and visibility are OK
Clouds: unknown
Weather: no significant weather observed at this time

Forecast for: LWSK (SKOPJE/PETROVAC , MK)
Text: TAF LWSK 181430Z 1815/1915 VRB02KT CAVOK
Forecast period: 1500 UTC 18 August 2019 to 1500 UTC 19 August 2019
Forecast type: FROM: standard forecast or significant change
Winds: variable direction winds at 2 MPH (2 knots; 1.0 m/s)
Visibility: 6 or more miles 10+ km)
Ceiling: unknown
Clouds: missing
Weather: NSW  (no significant weather)

 AIRPORT_AIRPORT_MAP

 AIRPORT_RUNWAY_INFO
AIRPORT_RUNWAY 16 AIRPORT_RUNWAY_LENGTH 8038 ft AIRPORT_RUNWAY_WIDTH 140 ft
AIRPORT_RUNWAY_ELEVATION 781 ft AIRPORT_RUNWAY_THRESHOLD 0 ft AIRPORT_RUNWAY_HEADING 165
AIRPORT_RUNWAY 34 AIRPORT_RUNWAY_LENGTH 8038 ft AIRPORT_RUNWAY_WIDTH 140 ft
AIRPORT_RUNWAY_ELEVATION 768 ft AIRPORT_RUNWAY_THRESHOLD 0 ft AIRPORT_RUNWAY_HEADING 345

 AIRPORT_AIRPORT_FREQUENCIES
AIRPORT_AIRPORT_NAVAIDS_TYPE APP AIRPORT_AIRPORT_NAVAIDS_NAME APP AIRPORT_AIRPORT_NAVAIDS_FREQ 120.3 MHZ
AIRPORT_AIRPORT_NAVAIDS_TYPE ATIS AIRPORT_AIRPORT_NAVAIDS_NAME ATIS AIRPORT_AIRPORT_NAVAIDS_FREQ 130.125 MHZ
AIRPORT_AIRPORT_NAVAIDS_TYPE TWR AIRPORT_AIRPORT_NAVAIDS_NAME TWR AIRPORT_AIRPORT_NAVAIDS_FREQ 118.5 MHZ

 AIRPORT_AIRPORT_NAVAIDS
AIRPORT_AIRPORT_NAVAIDS_TYPE NDB AIRPORT_AIRPORT_NAVAIDS_NAME Skopje AIRPORT_AIRPORT_NAVAIDS_FREQ 442 KHZ
AIRPORT_AIRPORT_NAVAIDS_TYPE VOR-DME AIRPORT_AIRPORT_NAVAIDS_NAME Sinko AIRPORT_AIRPORT_NAVAIDS_FREQ 111450 KHZ
AIRPORT_AIRPORT_NAVAIDS_TYPE VOR-DME AIRPORT_AIRPORT_NAVAIDS_NAME Skopje AIRPORT_AIRPORT_NAVAIDS_FREQ 112800 KHZ



Copyright © 2005-2019 - Virtuel Air Alsace - Tous droits réservés